sensor_id;sensor_type;location;lat;lon;timestamp;pressure;altitude;pressure_sealevel;temperature;humidity
13581;BME280;6861;46.170;7.222;2023-05-03T00:02:03;96393.78;;;14.64;46.00
13581;BME280;6861;46.170;7.222;2023-05-03T00:04:32;96397.75;;;14.62;46.17
13581;BME280;6861;46.170;7.222;2023-05-03T00:07:00;96401.44;;;14.61;46.52
13581;BME280;6861;46.170;7.222;2023-05-03T00:09:29;96398.31;;;14.59;46.22
13581;BME280;6861;46.170;7.222;2023-05-03T00:11:59;96409.34;;;14.61;45.82
13581;BME280;6861;46.170;7.222;2023-05-03T00:14:27;96403.03;;;14.62;45.91
13581;BME280;6861;46.170;7.222;2023-05-03T00:16:56;96413.84;;;14.60;45.04
13581;BME280;6861;46.170;7.222;2023-05-03T00:19:24;96404.19;;;14.51;45.27
13581;BME280;6861;46.170;7.222;2023-05-03T00:21:57;96402.16;;;14.37;45.96
13581;BME280;6861;46.170;7.222;2023-05-03T00:24:26;96406.69;;;14.32;45.96
13581;BME280;6861;46.170;7.222;2023-05-03T00:26:54;96407.81;;;14.26;45.77
13581;BME280;6861;46.170;7.222;2023-05-03T00:29:24;96410.44;;;14.26;45.97
13581;BME280;6861;46.170;7.222;2023-05-03T00:31:52;96398.84;;;14.27;45.66
13581;BME280;6861;46.170;7.222;2023-05-03T00:34:20;96402.53;;;14.26;45.28
13581;BME280;6861;46.170;7.222;2023-05-03T00:36:48;96397.53;;;14.24;45.72
13581;BME280;6861;46.170;7.222;2023-05-03T00:39:17;96398.59;;;14.23;45.42
13581;BME280;6861;46.170;7.222;2023-05-03T00:41:45;96401.75;;;14.25;46.02
13581;BME280;6861;46.170;7.222;2023-05-03T00:44:13;96393.63;;;14.22;46.42
13581;BME280;6861;46.170;7.222;2023-05-03T00:46:43;96392.88;;;14.16;46.26
13581;BME280;6861;46.170;7.222;2023-05-03T00:49:11;96392.41;;;14.09;46.79
13581;BME280;6861;46.170;7.222;2023-05-03T00:51:40;96390.88;;;14.03;47.20
13581;BME280;6861;46.170;7.222;2023-05-03T00:54:09;96397.72;;;14.04;47.07
13581;BME280;6861;46.170;7.222;2023-05-03T00:56:38;96380.94;;;13.95;47.14
13581;BME280;6861;46.170;7.222;2023-05-03T00:59:18;96383.16;;;13.83;47.14
13581;BME280;6861;46.170;7.222;2023-05-03T01:01:49;96381.13;;;13.74;47.13
13581;BME280;6861;46.170;7.222;2023-05-03T01:04:18;96378.28;;;13.66;47.39
13581;BME280;6861;46.170;7.222;2023-05-03T01:06:54;96382.03;;;13.55;47.96
13581;BME280;6861;46.170;7.222;2023-05-03T01:09:31;96380.25;;;13.45;47.75
13581;BME280;6861;46.170;7.222;2023-05-03T01:12:11;96375.03;;;13.40;48.74
13581;BME280;6861;46.170;7.222;2023-05-03T01:14:50;96368.22;;;13.34;48.19
13581;BME280;6861;46.170;7.222;2023-05-03T01:17:25;96374.53;;;13.33;48.64
13581;BME280;6861;46.170;7.222;2023-05-03T01:19:57;96380.34;;;13.30;48.05
13581;BME280;6861;46.170;7.222;2023-05-03T01:22:32;96376.16;;;13.29;48.65
13581;BME280;6861;46.170;7.222;2023-05-03T01:25:08;96364.81;;;13.33;48.63
13581;BME280;6861;46.170;7.222;2023-05-03T01:27:37;96380.28;;;13.40;48.18
13581;BME280;6861;46.170;7.222;2023-05-03T01:30:08;96382.88;;;13.45;48.96
13581;BME280;6861;46.170;7.222;2023-05-03T01:32:46;96391.84;;;13.44;48.27
13581;BME280;6861;46.170;7.222;2023-05-03T01:35:25;96388.19;;;13.35;47.96
13581;BME280;6861;46.170;7.222;2023-05-03T01:37:55;96389.81;;;13.26;48.71
13581;BME280;6861;46.170;7.222;2023-05-03T01:40:26;96395.66;;;13.18;48.46
13581;BME280;6861;46.170;7.222;2023-05-03T01:42:56;96391.44;;;13.11;48.76
13581;BME280;6861;46.170;7.222;2023-05-03T01:45:25;96388.28;;;13.09;49.24
13581;BME280;6861;46.170;7.222;2023-05-03T01:47:55;96381.47;;;13.08;48.46
13581;BME280;6861;46.170;7.222;2023-05-03T01:50:23;96386.19;;;13.06;48.98
13581;BME280;6861;46.170;7.222;2023-05-03T01:52:51;96387.06;;;12.97;49.06
13581;BME280;6861;46.170;7.222;2023-05-03T01:55:19;96380.56;;;12.79;49.46
13581;BME280;6861;46.170;7.222;2023-05-03T01:57:49;96400.00;;;12.73;50.23
13581;BME280;6861;46.170;7.222;2023-05-03T02:00:18;96400.03;;;12.63;50.40
13581;BME280;6861;46.170;7.222;2023-05-03T02:02:46;96407.94;;;12.53;50.40
13581;BME280;6861;46.170;7.222;2023-05-03T02:05:15;96396.94;;;12.40;50.79
13581;BME280;6861;46.170;7.222;2023-05-03T02:07:43;96394.31;;;12.35;50.88
13581;BME280;6861;46.170;7.222;2023-05-03T02:10:11;96391.94;;;12.39;51.29
13581;BME280;6861;46.170;7.222;2023-05-03T02:12:41;96399.00;;;12.43;50.74
13581;BME280;6861;46.170;7.222;2023-05-03T02:15:11;96404.25;;;12.43;51.61
13581;BME280;6861;46.170;7.222;2023-05-03T02:17:41;96406.34;;;12.52;50.87
13581;BME280;6861;46.170;7.222;2023-05-03T02:20:11;96398.75;;;12.50;51.37
13581;BME280;6861;46.170;7.222;2023-05-03T02:22:40;96394.56;;;12.44;50.97
13581;BME280;6861;46.170;7.222;2023-05-03T02:25:09;96399.00;;;12.43;50.96
13581;BME280;6861;46.170;7.222;2023-05-03T02:27:37;96404.53;;;12.42;50.82
13581;BME280;6861;46.170;7.222;2023-05-03T02:30:07;96404.53;;;12.37;51.29
13581;BME280;6861;46.170;7.222;2023-05-03T02:32:36;96400.06;;;12.37;51.44
13581;BME280;6861;46.170;7.222;2023-05-03T02:35:05;96408.47;;;12.29;51.15
13581;BME280;6861;46.170;7.222;2023-05-03T02:37:34;96406.13;;;12.23;51.24
13581;BME280;6861;46.170;7.222;2023-05-03T02:40:02;96403.25;;;12.19;52.02
13581;BME280;6861;46.170;7.222;2023-05-03T02:42:31;96396.94;;;12.15;51.62
13581;BME280;6861;46.170;7.222;2023-05-03T02:45:00;96392.53;;;12.05;52.08
13581;BME280;6861;46.170;7.222;2023-05-03T02:47:29;96395.66;;;11.97;52.49
13581;BME280;6861;46.170;7.222;2023-05-03T02:49:58;96403.78;;;11.96;52.06
13581;BME280;6861;46.170;7.222;2023-05-03T02:52:27;96399.59;;;11.90;52.60
13581;BME280;6861;46.170;7.222;2023-05-03T02:54:56;96393.31;;;11.80;52.24
13581;BME280;6861;46.170;7.222;2023-05-03T02:57:24;96399.59;;;11.79;52.43
13581;BME280;6861;46.170;7.222;2023-05-03T02:59:52;96396.41;;;11.72;52.21
13581;BME280;6861;46.170;7.222;2023-05-03T03:02:20;96394.31;;;11.69;52.26
13581;BME280;6861;46.170;7.222;2023-05-03T03:04:49;96390.38;;;11.67;52.94
13581;BME280;6861;46.170;7.222;2023-05-03T03:07:18;96398.50;;;11.70;52.74
13581;BME280;6861;46.170;7.222;2023-05-03T03:09:47;96399.56;;;11.74;52.72
13581;BME280;6861;46.170;7.222;2023-05-03T03:12:15;96400.59;;;11.73;53.08
13581;BME280;6861;46.170;7.222;2023-05-03T03:14:43;96403.75;;;11.75;52.88
13581;BME280;6861;46.170;7.222;2023-05-03T03:17:12;96399.53;;;11.69;53.18
13581;BME280;6861;46.170;7.222;2023-05-03T03:19:40;96402.69;;;11.61;53.52
13581;BME280;6861;46.170;7.222;2023-05-03T03:22:08;96404.00;;;11.59;52.72
13581;BME280;6861;46.170;7.222;2023-05-03T03:24:38;96401.63;;;11.52;53.46
13581;BME280;6861;46.170;7.222;2023-05-03T03:27:06;96391.63;;;11.39;53.85
13581;BME280;6861;46.170;7.222;2023-05-03T03:29:34;96400.78;;;11.36;54.11
13581;BME280;6861;46.170;7.222;2023-05-03T03:32:03;96398.94;;;11.32;53.39
13581;BME280;6861;46.170;7.222;2023-05-03T03:34:31;96398.94;;;11.32;53.42
13581;BME280;6861;46.170;7.222;2023-05-03T03:36:59;96402.09;;;11.29;53.99
13581;BME280;6861;46.170;7.222;2023-05-03T03:39:27;96395.78;;;11.20;53.77
13581;BME280;6861;46.170;7.222;2023-05-03T03:41:58;96401.00;;;11.14;54.43
13581;BME280;6861;46.170;7.222;2023-05-03T03:44:28;96400.72;;;11.06;53.90
13581;BME280;6861;46.170;7.222;2023-05-03T03:46:57;96400.44;;;11.02;53.86
13581;BME280;6861;46.170;7.222;2023-05-03T03:49:25;96397.56;;;11.04;54.50
13581;BME280;6861;46.170;7.222;2023-05-03T03:51:53;96404.13;;;11.06;54.41
13581;BME280;6861;46.170;7.222;2023-05-03T03:54:21;96397.06;;;11.07;54.04
13581;BME280;6861;46.170;7.222;2023-05-03T03:56:50;96398.34;;;11.04;53.81
13581;BME280;6861;46.170;7.222;2023-05-03T03:59:19;96393.13;;;11.04;53.66
13581;BME280;6861;46.170;7.222;2023-05-03T04:01:47;96400.44;;;11.02;53.78
13581;BME280;6861;46.170;7.222;2023-05-03T04:04:16;96394.41;;;11.02;53.50
13581;BME280;6861;46.170;7.222;2023-05-03T04:06:44;96402.03;;;11.03;54.08
13581;BME280;6861;46.170;7.222;2023-05-03T04:09:12;96403.09;;;11.07;53.68
13581;BME280;6861;46.170;7.222;2023-05-03T04:11:43;96406.22;;;11.09;54.06
13581;BME280;6861;46.170;7.222;2023-05-03T04:14:12;96402.56;;;11.10;53.54
13581;BME280;6861;46.170;7.222;2023-05-03T04:16:41;96413.34;;;11.19;53.98
13581;BME280;6861;46.170;7.222;2023-05-03T04:19:10;96417.00;;;11.28;53.63
13581;BME280;6861;46.170;7.222;2023-05-03T04:21:38;96411.00;;;11.33;53.74
13581;BME280;6861;46.170;7.222;2023-05-03T04:24:07;96423.56;;;11.31;53.75
13581;BME280;6861;46.170;7.222;2023-05-03T04:26:35;96428.81;;;11.31;53.22
13581;BME280;6861;46.170;7.222;2023-05-03T04:29:03;96429.06;;;11.29;53.86
13581;BME280;6861;46.170;7.222;2023-05-03T04:31:32;96432.47;;;11.30;53.77
13581;BME280;6861;46.170;7.222;2023-05-03T04:34:02;96433.53;;;11.34;53.44
13581;BME280;6861;46.170;7.222;2023-05-03T04:36:30;96436.97;;;11.39;53.05
13581;BME280;6861;46.170;7.222;2023-05-03T04:39:00;96443.00;;;11.45;53.07
13581;BME280;6861;46.170;7.222;2023-05-03T04:41:28;96436.19;;;11.49;53.40
13581;BME280;6861;46.170;7.222;2023-05-03T04:43:57;96441.72;;;11.53;52.88
13581;BME280;6861;46.170;7.222;2023-05-03T04:46:25;96441.47;;;11.54;53.97
13581;BME280;6861;46.170;7.222;2023-05-03T04:48:53;96447.72;;;11.48;53.39
13581;BME280;6861;46.170;7.222;2023-05-03T04:51:23;96453.50;;;11.50;53.82
13581;BME280;6861;46.170;7.222;2023-05-03T04:53:54;96453.47;;;11.45;53.77
13581;BME280;6861;46.170;7.222;2023-05-03T04:56:22;96459.25;;;11.47;53.22
13581;BME280;6861;46.170;7.222;2023-05-03T04:58:52;96465.00;;;11.44;53.42
13581;BME280;6861;46.170;7.222;2023-05-03T05:01:20;96468.41;;;11.39;53.26
13581;BME280;6861;46.170;7.222;2023-05-03T05:03:52;96471.03;;;11.39;53.47
13581;BME280;6861;46.170;7.222;2023-05-03T05:06:20;96470.22;;;11.34;53.38
13581;BME280;6861;46.170;7.222;2023-05-03T05:08:50;96475.19;;;11.30;53.84
13581;BME280;6861;46.170;7.222;2023-05-03T05:11:19;96479.09;;;11.28;54.01
13581;BME280;6861;46.170;7.222;2023-05-03T05:13:47;96470.19;;;11.24;53.91
13581;BME280;6861;46.170;7.222;2023-05-03T05:16:16;96470.72;;;11.26;53.71
13581;BME280;6861;46.170;7.222;2023-05-03T05:18:45;96475.44;;;11.24;53.44
13581;BME280;6861;46.170;7.222;2023-05-03T05:21:14;96474.38;;;11.20;53.80
13581;BME280;6861;46.170;7.222;2023-05-03T05:23:42;96466.50;;;11.14;53.48
13581;BME280;6861;46.170;7.222;2023-05-03T05:26:12;96482.50;;;11.23;53.53
13581;BME280;6861;46.170;7.222;2023-05-03T05:28:41;96479.09;;;11.23;53.74
13581;BME280;6861;46.170;7.222;2023-05-03T05:31:09;96482.78;;;11.22;53.43
13581;BME280;6861;46.170;7.222;2023-05-03T05:33:38;96486.44;;;11.21;54.10
13581;BME280;6861;46.170;7.222;2023-05-03T05:36:06;96483.84;;;11.26;53.75
13581;BME280;6861;46.170;7.222;2023-05-03T05:38:35;96490.38;;;11.33;53.25
13581;BME280;6861;46.170;7.222;2023-05-03T05:41:03;96494.59;;;11.34;53.61
13581;BME280;6861;46.170;7.222;2023-05-03T05:43:33;96485.94;;;11.34;53.76
13581;BME280;6861;46.170;7.222;2023-05-03T05:46:02;96493.78;;;11.34;53.75
13581;BME280;6861;46.170;7.222;2023-05-03T05:48:30;96493.25;;;11.32;53.79
13581;BME280;6861;46.170;7.222;2023-05-03T05:50:58;96495.63;;;11.33;53.78
13581;BME280;6861;46.170;7.222;2023-05-03T05:53:27;96498.78;;;11.35;53.82
13581;BME280;6861;46.170;7.222;2023-05-03T05:55:55;96491.19;;;11.34;53.37
13581;BME280;6861;46.170;7.222;2023-05-03T05:58:23;96492.75;;;11.35;53.85
13581;BME280;6861;46.170;7.222;2023-05-03T06:00:56;96492.22;;;11.33;53.34
13581;BME280;6861;46.170;7.222;2023-05-03T06:03:25;96490.63;;;11.32;53.66
13581;BME280;6861;46.170;7.222;2023-05-03T06:05:53;96480.16;;;11.32;53.62
13581;BME280;6861;46.170;7.222;2023-05-03T06:08:21;96487.25;;;11.36;53.65
13581;BME280;6861;46.170;7.222;2023-05-03T06:10:49;96492.78;;;11.45;53.18
13581;BME280;6861;46.170;7.222;2023-05-03T06:13:18;96487.56;;;11.50;53.11
13581;BME280;6861;46.170;7.222;2023-05-03T06:15:47;96491.25;;;11.54;53.25
13581;BME280;6861;46.170;7.222;2023-05-03T06:18:16;96497.59;;;11.68;53.17
13581;BME280;6861;46.170;7.222;2023-05-03T06:20:47;96494.81;;;12.31;52.71
13581;BME280;6861;46.170;7.222;2023-05-03T06:23:16;96479.78;;;13.72;50.23
13581;BME280;6861;46.170;7.222;2023-05-03T06:25:45;96483.34;;;15.36;48.15
13581;BME280;6861;46.170;7.222;2023-05-03T06:28:14;96480.91;;;16.85;45.43
13581;BME280;6861;46.170;7.222;2023-05-03T06:30:47;96475.63;;;18.25;43.39
13581;BME280;6861;46.170;7.222;2023-05-03T06:33:17;96480.63;;;19.42;41.30
13581;BME280;6861;46.170;7.222;2023-05-03T06:35:46;96481.81;;;20.36;40.15
13581;BME280;6861;46.170;7.222;2023-05-03T06:38:14;96471.91;;;21.18;38.60
13581;BME280;6861;46.170;7.222;2023-05-03T06:40:43;96474.72;;;22.01;36.96
13581;BME280;6861;46.170;7.222;2023-05-03T06:43:12;96479.78;;;22.69;35.80
13581;BME280;6861;46.170;7.222;2023-05-03T06:45:41;96468.22;;;23.22;34.99
13581;BME280;6861;46.170;7.222;2023-05-03T06:48:10;96471.97;;;23.70;34.21
13581;BME280;6861;46.170;7.222;2023-05-03T06:50:40;96464.19;;;24.17;33.02
13581;BME280;6861;46.170;7.222;2023-05-03T06:53:08;96471.84;;;24.74;32.40
13581;BME280;6861;46.170;7.222;2023-05-03T06:55:36;96458.56;;;24.94;31.64
13581;BME280;6861;46.170;7.222;2023-05-03T06:58:04;96458.41;;;25.18;31.02
13581;BME280;6861;46.170;7.222;2023-05-03T07:00:35;96460.00;;;25.54;30.69
13581;BME280;6861;46.170;7.222;2023-05-03T07:03:05;96460.38;;;26.07;29.52
13581;BME280;6861;46.170;7.222;2023-05-03T07:05:33;96454.41;;;26.52;28.92
13581;BME280;6861;46.170;7.222;2023-05-03T07:08:03;96456.88;;;27.06;27.87
13581;BME280;6861;46.170;7.222;2023-05-03T07:10:32;96445.31;;;27.52;27.62
13581;BME280;6861;46.170;7.222;2023-05-03T07:13:00;96438.41;;;28.11;26.57
13581;BME280;6861;46.170;7.222;2023-05-03T07:15:30;96433.66;;;28.71;25.84
13581;BME280;6861;46.170;7.222;2023-05-03T07:17:58;96427.41;;;29.45;25.08
13581;BME280;6861;46.170;7.222;2023-05-03T07:20:27;96425.41;;;30.04;24.13
13581;BME280;6861;46.170;7.222;2023-05-03T07:22:55;96423.13;;;30.20;24.02
13581;BME280;6861;46.170;7.222;2023-05-03T07:25:25;96417.84;;;30.62;23.61
13581;BME280;6861;46.170;7.222;2023-05-03T07:27:53;96410.91;;;30.76;23.30
13581;BME280;6861;46.170;7.222;2023-05-03T07:30:21;96409.38;;;30.89;22.47
13581;BME280;6861;46.170;7.222;2023-05-03T07:32:50;96410.16;;;31.04;22.33
13581;BME280;6861;46.170;7.222;2023-05-03T07:35:18;96403.56;;;31.44;22.04
13581;BME280;6861;46.170;7.222;2023-05-03T07:37:47;96396.09;;;31.90;21.58
13581;BME280;6861;46.170;7.222;2023-05-03T07:40:15;96385.22;;;32.01;20.74
13581;BME280;6861;46.170;7.222;2023-05-03T07:42:44;96385.38;;;32.46;20.28
13581;BME280;6861;46.170;7.222;2023-05-03T07:45:13;96379.34;;;32.83;20.16
13581;BME280;6861;46.170;7.222;2023-05-03T07:47:41;96382.19;;;33.10;19.71
13581;BME280;6861;46.170;7.222;2023-05-03T07:50:09;96360.34;;;33.24;19.31
13581;BME280;6861;46.170;7.222;2023-05-03T07:52:38;96367.22;;;33.39;19.07
13581;BME280;6861;46.170;7.222;2023-05-03T07:55:08;96371.56;;;33.67;19.24
13581;BME280;6861;46.170;7.222;2023-05-03T07:57:36;96361.44;;;34.32;18.84
13581;BME280;6861;46.170;7.222;2023-05-03T08:00:07;96363.16;;;35.20;18.15
13581;BME280;6861;46.170;7.222;2023-05-03T08:02:38;96356.84;;;35.66;17.37
13581;BME280;6861;46.170;7.222;2023-05-03T08:05:07;96351.28;;;35.73;17.17
13581;BME280;6861;46.170;7.222;2023-05-03T08:07:35;96337.44;;;36.03;16.73
13581;BME280;6861;46.170;7.222;2023-05-03T08:10:04;96336.66;;;36.03;16.61
13581;BME280;6861;46.170;7.222;2023-05-03T08:12:33;96337.09;;;36.01;16.37
13581;BME280;6861;46.170;7.222;2023-05-03T08:15:01;96339.06;;;36.01;16.40
13581;BME280;6861;46.170;7.222;2023-05-03T08:17:40;96328.03;;;35.88;16.02
13581;BME280;6861;46.170;7.222;2023-05-03T08:20:09;96315.25;;;36.21;16.06
13581;BME280;6861;46.170;7.222;2023-05-03T08:22:38;96317.47;;;36.59;15.88
13581;BME280;6861;46.170;7.222;2023-05-03T08:25:07;96304.19;;;36.93;15.38
13581;BME280;6861;46.170;7.222;2023-05-03T08:27:36;96303.81;;;37.24;15.30
13581;BME280;6861;46.170;7.222;2023-05-03T08:30:06;96296.97;;;37.45;14.88
13581;BME280;6861;46.170;7.222;2023-05-03T08:32:35;96296.03;;;37.64;14.94
13581;BME280;6861;46.170;7.222;2023-05-03T08:35:05;96282.31;;;38.31;14.92
13581;BME280;6861;46.170;7.222;2023-05-03T08:37:38;96283.69;;;39.30;13.93
13581;BME280;6861;46.170;7.222;2023-05-03T08:40:08;96277.28;;;40.39;13.34
13581;BME280;6861;46.170;7.222;2023-05-03T08:42:39;96266.69;;;40.86;12.81
13581;BME280;6861;46.170;7.222;2023-05-03T08:45:10;96269.34;;;41.69;12.69
13581;BME280;6861;46.170;7.222;2023-05-03T08:47:39;96261.16;;;42.59;11.89
13581;BME280;6861;46.170;7.222;2023-05-03T08:50:13;96248.75;;;42.87;11.03
13581;BME280;6861;46.170;7.222;2023-05-03T08:52:42;96254.03;;;42.52;11.28
13581;BME280;6861;46.170;7.222;2023-05-03T08:55:11;96254.38;;;42.93;11.27
13581;BME280;6861;46.170;7.222;2023-05-03T08:57:40;96248.41;;;43.09;10.95
13581;BME280;6861;46.170;7.222;2023-05-03T09:00:09;96246.13;;;43.96;10.79
13581;BME280;6861;46.170;7.222;2023-05-03T09:02:39;96237.63;;;44.90;10.35
13581;BME280;6861;46.170;7.222;2023-05-03T09:05:33;96235.44;;;44.99;10.18
13581;BME280;6861;46.170;7.222;2023-05-03T09:08:06;96229.59;;;45.44;9.86
13581;BME280;6861;46.170;7.222;2023-05-03T09:10:37;96226.25;;;45.60;9.78
13581;BME280;6861;46.170;7.222;2023-05-03T09:13:06;96227.84;;;46.09;9.59
13581;BME280;6861;46.170;7.222;2023-05-03T09:15:35;96227.75;;;46.35;9.15
13581;BME280;6861;46.170;7.222;2023-05-03T09:18:08;96219.22;;;46.01;8.90
13581;BME280;6861;46.170;7.222;2023-05-03T09:20:40;96218.50;;;46.07;8.66
13581;BME280;6861;46.170;7.222;2023-05-03T09:23:11;96216.78;;;46.57;8.51
13581;BME280;6861;46.170;7.222;2023-05-03T09:25:41;96213.78;;;46.66;8.13
13581;BME280;6861;46.170;7.222;2023-05-03T09:28:10;96206.69;;;46.54;7.97
13581;BME280;6861;46.170;7.222;2023-05-03T09:30:38;96197.47;;;46.91;7.83
13581;BME280;6861;46.170;7.222;2023-05-03T09:33:07;96203.00;;;46.74;7.67
13581;BME280;6861;46.170;7.222;2023-05-03T09:35:37;96201.78;;;46.97;7.88
13581;BME280;6861;46.170;7.222;2023-05-03T09:38:26;96194.81;;;47.47;7.53
13581;BME280;6861;46.170;7.222;2023-05-03T09:40:55;96192.47;;;48.01;7.23
13581;BME280;6861;46.170;7.222;2023-05-03T09:43:24;96195.13;;;48.46;7.07
13581;BME280;6861;46.170;7.222;2023-05-03T09:45:52;96190.97;;;48.69;6.96
13581;BME280;6861;46.170;7.222;2023-05-03T09:48:34;96198.25;;;49.25;7.08
13581;BME280;6861;46.170;7.222;2023-05-03T09:51:04;96189.13;;;49.54;6.63
13581;BME280;6861;46.170;7.222;2023-05-03T09:53:34;96177.13;;;50.19;6.55
13581;BME280;6861;46.170;7.222;2023-05-03T09:56:05;96180.13;;;51.15;5.88
13581;BME280;6861;46.170;7.222;2023-05-03T09:58:35;96174.00;;;51.35;5.98
13581;BME280;6861;46.170;7.222;2023-05-03T10:01:03;96174.47;;;51.98;6.01
13581;BME280;6861;46.170;7.222;2023-05-03T10:03:36;96164.75;;;52.25;5.58
13581;BME280;6861;46.170;7.222;2023-05-03T10:06:14;96165.84;;;51.69;6.10
13581;BME280;6861;46.170;7.222;2023-05-03T10:08:49;96157.59;;;51.45;6.33
13581;BME280;6861;46.170;7.222;2023-05-03T10:11:22;96156.91;;;51.26;6.64
13581;BME280;6861;46.170;7.222;2023-05-03T10:13:50;96163.41;;;51.15;6.41
13581;BME280;6861;46.170;7.222;2023-05-03T10:16:22;96156.84;;;50.99;5.89
13581;BME280;6861;46.170;7.222;2023-05-03T10:18:57;96158.53;;;50.27;6.30
13581;BME280;6861;46.170;7.222;2023-05-03T10:21:37;96155.03;;;49.78;6.60
13581;BME280;6861;46.170;7.222;2023-05-03T10:24:10;96153.06;;;48.72;6.79
13581;BME280;6861;46.170;7.222;2023-05-03T10:26:40;96144.13;;;47.07;7.29
13581;BME280;6861;46.170;7.222;2023-05-03T10:29:46;96147.84;;;43.78;8.79
13581;BME280;6861;46.170;7.222;2023-05-03T10:32:34;96139.66;;;40.58;10.47
13581;BME280;6861;46.170;7.222;2023-05-03T10:35:08;96145.78;;;38.49;11.90
13581;BME280;6861;46.170;7.222;2023-05-03T10:37:40;96142.88;;;36.62;12.55
13581;BME280;6861;46.170;7.222;2023-05-03T10:40:10;96139.66;;;35.01;13.73
13581;BME280;6861;46.170;7.222;2023-05-03T10:42:43;96129.94;;;33.44;15.21
13581;BME280;6861;46.170;7.222;2023-05-03T10:45:23;96147.06;;;32.35;15.74
13581;BME280;6861;46.170;7.222;2023-05-03T10:48:14;96139.59;;;31.50;16.31
13581;BME280;6861;46.170;7.222;2023-05-03T10:50:46;96131.00;;;30.89;17.21
13581;BME280;6861;46.170;7.222;2023-05-03T10:53:39;96133.50;;;30.26;17.27
13581;BME280;6861;46.170;7.222;2023-05-03T10:56:10;96132.31;;;29.60;17.68
13581;BME280;6861;46.170;7.222;2023-05-03T10:58:41;96124.41;;;28.87;17.87
13581;BME280;6861;46.170;7.222;2023-05-03T11:01:11;96127.63;;;28.38;18.50
13581;BME280;6861;46.170;7.222;2023-05-03T11:03:47;96127.41;;;28.10;18.71
13581;BME280;6861;46.170;7.222;2023-05-03T11:06:32;96123.34;;;27.82;19.85
13581;BME280;6861;46.170;7.222;2023-05-03T11:09:03;96130.50;;;27.60;19.72
13581;BME280;6861;46.170;7.222;2023-05-03T11:11:33;96122.94;;;27.36;20.38
13581;BME280;6861;46.170;7.222;2023-05-03T11:14:02;96117.84;;;27.27;21.52
13581;BME280;6861;46.170;7.222;2023-05-03T11:16:31;96123.88;;;27.17;21.28
13581;BME280;6861;46.170;7.222;2023-05-03T11:19:00;96120.41;;;27.13;21.05
13581;BME280;6861;46.170;7.222;2023-05-03T11:21:29;96121.44;;;27.05;21.29
13581;BME280;6861;46.170;7.222;2023-05-03T11:23:57;96115.03;;;26.80;21.68
13581;BME280;6861;46.170;7.222;2023-05-03T11:26:27;96112.56;;;26.67;22.16
13581;BME280;6861;46.170;7.222;2023-05-03T11:28:55;96109.84;;;26.64;22.14
13581;BME280;6861;46.170;7.222;2023-05-03T11:31:24;96106.06;;;26.68;22.58
13581;BME280;6861;46.170;7.222;2023-05-03T11:33:52;96106.38;;;26.63;22.16
13581;BME280;6861;46.170;7.222;2023-05-03T11:36:21;96106.19;;;26.49;22.00
13581;BME280;6861;46.170;7.222;2023-05-03T11:38:49;96106.09;;;26.42;22.28
13581;BME280;6861;46.170;7.222;2023-05-03T11:41:18;96103.41;;;26.42;22.83
13581;BME280;6861;46.170;7.222;2023-05-03T11:43:48;96103.72;;;26.37;22.00
13581;BME280;6861;46.170;7.222;2023-05-03T11:46:32;96103.09;;;26.21;22.55
13581;BME280;6861;46.170;7.222;2023-05-03T11:49:01;96102.63;;;26.15;23.25
13581;BME280;6861;46.170;7.222;2023-05-03T11:51:30;96094.75;;;25.99;23.42
13581;BME280;6861;46.170;7.222;2023-05-03T11:53:59;96102.03;;;25.99;24.12
13581;BME280;6861;46.170;7.222;2023-05-03T11:56:47;96095.47;;;25.96;24.74
13581;BME280;6861;46.170;7.222;2023-05-03T11:59:19;96087.50;;;26.03;24.96
13581;BME280;6861;46.170;7.222;2023-05-03T12:01:47;96092.38;;;25.94;25.16
13581;BME280;6861;46.170;7.222;2023-05-03T12:04:17;96092.16;;;25.80;25.15
13581;BME280;6861;46.170;7.222;2023-05-03T12:06:45;96090.38;;;25.65;25.30
13581;BME280;6861;46.170;7.222;2023-05-03T12:09:20;96087.22;;;25.59;25.75
13581;BME280;6861;46.170;7.222;2023-05-03T12:11:52;96082.50;;;25.53;25.92
13581;BME280;6861;46.170;7.222;2023-05-03T12:14:23;96090.97;;;25.55;26.08
13581;BME280;6861;46.170;7.222;2023-05-03T12:16:51;96079.81;;;25.53;26.23
13581;BME280;6861;46.170;7.222;2023-05-03T12:21:52;96077.72;;;25.20;26.84
13581;BME280;6861;46.170;7.222;2023-05-03T12:24:40;96070.47;;;25.20;26.50
13581;BME280;6861;46.170;7.222;2023-05-03T12:27:11;96072.56;;;25.07;26.72
13581;BME280;6861;46.170;7.222;2023-05-03T12:29:41;96068.69;;;25.05;26.73
13581;BME280;6861;46.170;7.222;2023-05-03T12:32:13;96067.00;;;24.97;27.17
13581;BME280;6861;46.170;7.222;2023-05-03T12:34:41;96070.78;;;24.96;27.41
13581;BME280;6861;46.170;7.222;2023-05-03T12:37:12;96067.84;;;25.01;27.53
13581;BME280;6861;46.170;7.222;2023-05-03T12:39:44;96072.34;;;24.97;27.71
13581;BME280;6861;46.170;7.222;2023-05-03T12:42:29;96062.97;;;24.87;28.18
13581;BME280;6861;46.170;7.222;2023-05-03T12:45:01;96051.63;;;24.94;28.28
13581;BME280;6861;46.170;7.222;2023-05-03T12:47:30;96046.13;;;25.06;28.41
13581;BME280;6861;46.170;7.222;2023-05-03T12:50:02;96044.50;;;25.24;28.28
13581;BME280;6861;46.170;7.222;2023-05-03T12:52:32;96049.28;;;25.34;28.08
13581;BME280;6861;46.170;7.222;2023-05-03T12:55:04;96038.25;;;25.39;28.16
13581;BME280;6861;46.170;7.222;2023-05-03T12:57:37;96034.03;;;25.38;27.69
13581;BME280;6861;46.170;7.222;2023-05-03T13:00:10;96027.13;;;25.37;27.74
13581;BME280;6861;46.170;7.222;2023-05-03T13:02:41;96030.22;;;25.39;27.77
13581;BME280;6861;46.170;7.222;2023-05-03T13:05:12;96028.75;;;25.42;27.73
13581;BME280;6861;46.170;7.222;2023-05-03T13:07:46;96028.75;;;25.42;27.40
13581;BME280;6861;46.170;7.222;2023-05-03T13:10:22;96018.03;;;25.42;28.07
13581;BME280;6861;46.170;7.222;2023-05-03T13:12:50;96008.84;;;25.43;27.73
13581;BME280;6861;46.170;7.222;2023-05-03T13:15:21;96011.22;;;25.48;28.25
13581;BME280;6861;46.170;7.222;2023-05-03T13:17:51;96007.53;;;25.56;28.06
13581;BME280;6861;46.170;7.222;2023-05-03T13:20:20;96005.97;;;25.55;27.75
13581;BME280;6861;46.170;7.222;2023-05-03T13:22:48;96002.06;;;25.49;27.94
13581;BME280;6861;46.170;7.222;2023-05-03T13:25:16;96005.94;;;25.52;27.95
13581;BME280;6861;46.170;7.222;2023-05-03T13:27:44;96007.88;;;25.55;28.35
13581;BME280;6861;46.170;7.222;2023-05-03T13:30:15;96011.41;;;25.59;28.16
13581;BME280;6861;46.170;7.222;2023-05-03T13:32:45;95993.47;;;25.63;28.23